Main page
METAR-TAF:

METAR-TAF

Airports :

Mashhad International Airport

Mashhad, Iran

latitude: 36-16N, longitude: 059-38E, elevation: 989 m

Current weather observation

The report was made 24 minutes ago, at 13:00 UTC
Wind 4 kt from the East
Temperature 13°C
Humidity 54%
Pressure 1016 hPa
Visibility: 8000 m

METAR: OIMM 281300Z 10004KT 8000 NSC 13/04 Q1016 A3001

Time: 16:54 (13:24 UTC)

Forecast

The report was made 1 hour and 34 minutes ago, at 11:50 UTC
Forecast valid from 28 at 12 UTC to 29 at 18 UTC
Wind 8 kt from the West/Southwest
Visibility: 7000 m
Temporary
from 28 at 23 UTC to 29 at 05 UTC
Visibility: 3000 m
mist

TAF: OIMM 281150Z 2812/2918 24008KT 7000 NSC TEMPO 2823/2905 3000 BR

Weather observations and forecasts of more than 4000 airports (METAR and TAF reports).

The available stations are represented by yellow and red dots on the map.

Hover mouse over dot to see the name of the station.

Then click to see weather observations and forecasts.

To change the map : click on the green buttons with a black cross to zoom in, on the green button with a dash to zoom out, or on the green arrows for adjacent maps.


METAR-TAF: